createdAt,value
2018-04-17T00:00:16.792Z,34.8
2018-04-17T00:01:06.315Z,34.8
2018-04-17T00:01:56.946Z,34.7
2018-04-17T00:02:46.743Z,34.8
2018-04-17T00:03:36.532Z,34.7
2018-04-17T00:04:26.852Z,34.7
2018-04-17T00:05:17.190Z,34.7
2018-04-17T00:06:06.970Z,34.7
2018-04-17T00:06:56.765Z,34.7
2018-04-17T00:07:46.536Z,34.7
2018-04-17T00:08:36.587Z,34.7
2018-04-17T00:09:27.244Z,34.7
2018-04-17T00:10:17.545Z,34.6
2018-04-17T00:11:07.180Z,34.7
2018-04-17T00:11:57.677Z,34.7
2018-04-17T00:12:47.736Z,34.7
2018-04-17T00:13:37.833Z,34.7
2018-04-17T00:14:27.879Z,34.7
2018-04-17T00:15:17.396Z,34.7
2018-04-17T00:16:07.981Z,34.7
2018-04-17T00:16:58.099Z,34.6
2018-04-17T00:17:48.119Z,34.6
2018-04-17T00:18:38.193Z,34.6
2018-04-17T00:19:27.738Z,34.6
2018-04-17T00:20:18.338Z,34.6
2018-04-17T00:21:08.422Z,34.6
2018-04-17T00:21:58.202Z,34.6
2018-04-17T00:22:48.055Z,34.6
2018-04-17T00:23:38.290Z,34.6
2018-04-17T00:24:28.357Z,34.6
2018-04-17T00:25:18.140Z,34.6
2018-04-17T00:26:08.774Z,34.6
2018-04-17T00:26:58.585Z,34.6
2018-04-17T00:27:48.318Z,34.6
2018-04-17T00:28:38.396Z,34.6
2018-04-17T00:29:28.770Z,34.6
2018-04-17T00:30:18.560Z,34.6
2018-04-17T00:31:08.271Z,34.6
2018-04-17T00:31:58.684Z,34.6
2018-04-17T00:32:48.974Z,34.6
2018-04-17T00:33:39.152Z,34.6
2018-04-17T00:34:29.139Z,34.6
2018-04-17T00:35:19.466Z,34.6
2018-04-17T00:36:09.279Z,34.6
2018-04-17T00:36:59.307Z,34.6
2018-04-17T00:37:49.404Z,34.6
2018-04-17T00:38:39.445Z,34.6
2018-04-17T00:39:29.217Z,34.6
2018-04-17T00:40:19.582Z,34.6
2018-04-17T00:41:09.631Z,34.6
2018-04-17T00:41:59.983Z,34.6
2018-04-17T00:42:49.447Z,34.6
2018-04-17T00:43:40.075Z,34.6
2018-04-17T00:44:30.149Z,34.6
2018-04-17T00:45:19.927Z,34.6
2018-04-17T00:46:10.300Z,34.6
2018-04-17T00:47:00.323Z,34.6
2018-04-17T00:47:50.122Z,34.6
2018-04-17T00:48:39.907Z,34.5
2018-04-17T00:49:30.539Z,34.5
2018-04-17T00:50:20.005Z,34.6
2018-04-17T00:51:10.071Z,34.5
2018-04-17T00:52:00.440Z,34.6
2018-04-17T00:52:50.269Z,34.5
2018-04-17T00:53:40.859Z,34.5
2018-04-17T00:54:30.045Z,34.5
2018-04-17T00:55:20.700Z,34.5
2018-04-17T00:56:11.041Z,34.5
2018-04-17T00:57:00.544Z,34.5
2018-04-17T00:57:50.298Z,34.5
2018-04-17T00:58:40.667Z,34.5
2018-04-17T00:59:30.996Z,34.5
2018-04-17T01:00:21.364Z,34.5
2018-04-17T01:01:11.394Z,34.5
2018-04-17T01:02:00.616Z,34.5
2018-04-17T01:02:51.525Z,34.5
2018-04-17T01:03:41.315Z,34.4
2018-04-17T01:04:30.807Z,34.4
2018-04-17T01:05:21.740Z,34.4
2018-04-17T01:06:11.786Z,34.5
2018-04-17T01:07:01.824Z,34.4
2018-04-17T01:07:51.330Z,34.5
2018-04-17T01:08:41.446Z,34.4
2018-04-17T01:09:31.757Z,34.4
2018-04-17T01:10:21.252Z,34.4
2018-04-17T01:11:12.178Z,34.4
2018-04-17T01:12:02.231Z,34.4
2018-04-17T01:12:52.261Z,34.4
2018-04-17T01:13:42.066Z,34.4
2018-04-17T01:14:32.476Z,34.4
2018-04-17T01:15:22.201Z,34.4
2018-04-17T01:16:12.014Z,34.4
2018-04-17T01:17:02.624Z,34.4
2018-04-17T01:17:51.821Z,34.4
2018-04-17T01:18:42.698Z,34.4
2018-04-17T01:19:32.513Z,34.4
2018-04-17T01:20:22.303Z,34.4
2018-04-17T01:21:12.363Z,34.4
2018-04-17T01:22:02.419Z,34.4
2018-04-17T01:22:53.034Z,34.4
2018-04-17T01:23:42.835Z,34.4
2018-04-17T01:24:33.174Z,34.4
2018-04-17T01:25:23.226Z,34.4
2018-04-17T01:26:13.024Z,34.4
2018-04-17T01:27:03.356Z,34.4
2018-04-17T01:27:53.420Z,34.4
2018-04-17T01:28:43.218Z,34.4
2018-04-17T01:29:33.255Z,34.4
2018-04-17T01:30:23.331Z,34.4
2018-04-17T01:31:12.826Z,34.4
2018-04-17T01:32:03.735Z,34.4
2018-04-17T01:32:53.514Z,34.4
2018-04-17T01:33:43.866Z,34.4
2018-04-17T01:34:33.885Z,34.4
2018-04-17T01:35:23.998Z,34.3
2018-04-17T01:36:14.028Z,34.4
2018-04-17T01:37:03.805Z,34.4
2018-04-17T01:37:53.065Z,34.4
2018-04-17T01:38:43.963Z,34.4
2018-04-17T01:39:34.323Z,34.3
2018-04-17T01:40:24.079Z,34.3
2018-04-17T01:41:14.126Z,34.3
2018-04-17T01:42:03.912Z,34.3
2018-04-17T01:42:54.568Z,34.3
2018-04-17T01:43:44.444Z,34.3
2018-04-17T01:44:34.649Z,34.3
2018-04-17T01:45:24.453Z,34.3
2018-04-17T01:46:14.510Z,34.3
2018-04-17T01:47:04.002Z,34.3
2018-04-17T01:47:54.658Z,34.3
2018-04-17T01:48:44.724Z,34.3
2018-04-17T01:49:34.498Z,34.3
2018-04-17T01:50:24.564Z,34.3
2018-04-17T01:51:14.596Z,34.3
2018-04-17T01:52:05.219Z,34.3
2018-04-17T01:52:55.034Z,34.3
2018-04-17T01:53:45.112Z,34.3
2018-04-17T01:54:35.144Z,34.3
2018-04-17T01:55:25.462Z,34.3
2018-04-17T01:56:15.933Z,34.3
2018-04-17T01:57:05.315Z,34.3
2018-04-17T01:57:55.417Z,34.3
2018-04-17T01:58:44.606Z,34.3
2018-04-17T01:59:34.678Z,34.3
2018-04-17T02:00:25.605Z,34.3
2018-04-17T02:01:15.648Z,34.3
2018-04-17T02:02:05.704Z,34.3
2018-04-17T02:02:56.056Z,34.3
2018-04-17T02:03:46.151Z,34.3
2018-04-17T02:04:35.921Z,34.3
2018-04-17T02:05:26.250Z,34.3
2018-04-17T02:06:15.753Z,34.3
2018-04-17T02:07:05.535Z,34.3
2018-04-17T02:07:55.885Z,34.3
2018-04-17T02:08:45.341Z,34.3
2018-04-17T02:09:36.276Z,34.2
2018-04-17T02:10:26.068Z,34.2
2018-04-17T02:11:16.658Z,34.2
2018-04-17T02:12:06.770Z,34.3
2018-04-17T02:12:56.841Z,34.2
2018-04-17T02:13:46.867Z,34.2
2018-04-17T02:14:36.379Z,34.2
2018-04-17T02:15:26.705Z,34.2
2018-04-17T02:16:16.776Z,34.2
2018-04-17T02:17:06.859Z,34.2
2018-04-17T02:17:57.199Z,34.2
2018-04-17T02:18:47.002Z,34.2
2018-04-17T02:19:37.308Z,34.2
2018-04-17T02:20:27.089Z,34.2
2018-04-17T02:21:17.167Z,34.2
2018-04-17T02:22:07.029Z,34.2
2018-04-17T02:22:57.284Z,34.2
2018-04-17T02:23:47.070Z,34.2
2018-04-17T02:24:37.672Z,34.2
2018-04-17T02:25:27.474Z,34.1
2018-04-17T02:26:17.524Z,34.2
2018-04-17T02:27:07.039Z,34.2
2018-04-17T02:27:57.939Z,34.1
2018-04-17T02:28:48.013Z,34.2
2018-04-17T02:29:37.773Z,34.1
2018-04-17T02:30:27.852Z,34.1
2018-04-17T02:31:17.650Z,34.1
2018-04-17T02:32:07.986Z,34.1
2018-04-17T02:32:57.765Z,34.1
2018-04-17T02:33:48.415Z,34.1
2018-04-17T02:34:38.172Z,34.1
2018-04-17T02:35:28.512Z,34.1
2018-04-17T02:36:18.590Z,34.1
2018-04-17T02:37:08.096Z,34.1
2018-04-17T02:37:58.415Z,34.1
2018-04-17T02:38:48.751Z,34.1
2018-04-17T02:39:38.290Z,34.1
2018-04-17T02:40:28.625Z,34.1
2018-04-17T02:41:18.672Z,34.1
2018-04-17T02:42:08.457Z,34.1
2018-04-17T02:42:59.104Z,34.1
2018-04-17T02:43:49.139Z,34.1
2018-04-17T02:44:38.751Z,34.1
2018-04-17T02:45:29.016Z,34.1
2018-04-17T02:46:19.355Z,34.1
2018-04-17T02:47:09.092Z,34.1
2018-04-17T02:47:58.397Z,34.1
2018-04-17T02:48:48.961Z,34.1
2018-04-17T02:49:39.286Z,34.1
2018-04-17T02:50:29.361Z,34.1
2018-04-17T02:51:19.713Z,34.1
2018-04-17T02:52:09.484Z,34.1
2018-04-17T02:52:59.801Z,34.1
2018-04-17T02:53:49.607Z,34.1
2018-04-17T02:54:39.962Z,34.1
2018-04-17T02:55:30.013Z,34.1
2018-04-17T02:56:18.939Z,34.1
2018-04-17T02:57:10.127Z,34.1
2018-04-17T02:57:59.667Z,34.1
2018-04-17T02:58:49.702Z,34
2018-04-17T02:59:39.744Z,34.1
2018-04-17T03:00:30.369Z,34.1
2018-04-17T03:01:20.447Z,34
2018-04-17T03:02:09.939Z,34
2018-04-17T03:03:00.321Z,34
2018-04-17T03:03:49.806Z,34
2018-04-17T03:04:40.489Z,34
2018-04-17T03:05:30.493Z,34
2018-04-17T03:06:20.542Z,34
2018-04-17T03:07:10.901Z,34
2018-04-17T03:08:00.414Z,34
2018-04-17T03:08:50.435Z,34
2018-04-17T03:09:40.521Z,34
2018-04-17T03:10:31.156Z,34
2018-04-17T03:11:20.915Z,34
2018-04-17T03:12:10.445Z,34
2018-04-17T03:13:01.027Z,34
2018-04-17T03:13:51.375Z,33.9
2018-04-17T03:14:41.503Z,34
2018-04-17T03:15:31.248Z,34
2018-04-17T03:16:21.577Z,33.9
2018-04-17T03:17:11.645Z,33.9
2018-04-17T03:18:01.688Z,34
2018-04-17T03:18:51.464Z,33.9
2018-04-17T03:19:41.863Z,33.9
2018-04-17T03:20:31.616Z,33.9
2018-04-17T03:21:21.949Z,33.9
2018-04-17T03:22:11.728Z,33.9
2018-04-17T03:23:02.068Z,33.9
2018-04-17T03:23:51.952Z,33.9
2018-04-17T03:24:42.244Z,33.9
2018-04-17T03:25:32.149Z,33.9
2018-04-17T03:26:22.029Z,33.9
2018-04-17T03:27:11.892Z,33.9
2018-04-17T03:28:02.205Z,33.9
2018-04-17T03:28:52.236Z,33.9
2018-04-17T03:29:41.749Z,33.9
2018-04-17T03:30:32.075Z,33.9
2018-04-17T03:31:22.715Z,33.9
2018-04-17T03:32:12.015Z,33.9
2018-04-17T03:33:02.340Z,33.9
2018-04-17T03:33:51.853Z,33.9
2018-04-17T03:34:42.684Z,33.9
2018-04-17T03:35:33.019Z,33.9
2018-04-17T03:36:23.071Z,33.9
2018-04-17T03:37:12.885Z,33.9
2018-04-17T03:38:03.195Z,33.9
2018-04-17T03:38:52.997Z,33.9
2018-04-17T03:39:43.336Z,33.9
2018-04-17T03:40:33.126Z,33.9
2018-04-17T03:41:31.902Z,33.9
2018-04-17T03:42:21.462Z,33.9
2018-04-17T03:43:11.458Z,33.9
2018-04-17T03:44:01.563Z,33.9
2018-04-17T03:44:51.963Z,33.9
2018-04-17T03:45:56.625Z,33.9
2018-04-17T03:46:32.062Z,33.9
2018-04-17T03:47:21.829Z,33.9
2018-04-17T03:48:12.084Z,33.9
2018-04-17T03:49:01.592Z,33.8
2018-04-17T03:49:52.324Z,33.9
2018-04-17T03:50:41.814Z,33.8
2018-04-17T03:51:31.857Z,33.8
2018-04-17T03:52:22.210Z,33.8
2018-04-17T03:53:12.280Z,33.8
2018-04-17T03:54:01.844Z,33.8
2018-04-17T03:54:52.106Z,33.8
2018-04-17T03:55:41.875Z,33.8
2018-04-17T03:56:32.766Z,33.8
2018-04-17T03:57:22.838Z,33.8
2018-04-17T03:58:12.183Z,33.8
2018-04-17T03:59:16.848Z,33.8
2018-04-17T03:59:52.573Z,33.8
2018-04-17T04:00:42.598Z,33.8
2018-04-17T04:01:32.706Z,33.8
2018-04-17T04:02:22.456Z,33.8
2018-04-17T04:03:12.791Z,33.8
2018-04-17T04:04:02.332Z,33.8
2018-04-17T04:04:53.184Z,33.8
2018-04-17T04:05:43.002Z,33.8
2018-04-17T04:06:33.338Z,33.8
2018-04-17T04:07:22.876Z,33.8
2018-04-17T04:08:13.684Z,33.8
2018-04-17T04:09:02.945Z,33.8
2018-04-17T04:09:53.030Z,33.8
2018-04-17T04:10:43.342Z,33.8
2018-04-17T04:11:33.432Z,33.8
2018-04-17T04:12:23.954Z,33.8
2018-04-17T04:13:13.752Z,33.8
2018-04-17T04:14:18.766Z,33.8
2018-04-17T04:14:53.672Z,33.8
2018-04-17T04:15:43.702Z,33.8
2018-04-17T04:16:48.648Z,33.8
2018-04-17T04:17:23.496Z,33.8
2018-04-17T04:18:14.565Z,33.8
2018-04-17T04:19:04.191Z,33.8
2018-04-17T04:19:54.540Z,33.8
2018-04-17T04:20:44.059Z,33.8
2018-04-17T04:21:34.424Z,33.8
2018-04-17T04:23:13.937Z,33.7
2018-04-17T04:24:05.273Z,33.7
2018-04-17T04:24:54.659Z,33.7
2018-04-17T04:25:45.376Z,33.8
2018-04-17T04:26:34.751Z,33.7
2018-04-17T04:27:24.882Z,33.7
2018-04-17T04:28:15.068Z,33.7
2018-04-17T04:29:04.575Z,33.7
2018-04-17T04:29:54.781Z,33.7
2018-04-17T04:30:44.790Z,33.7
2018-04-17T04:31:35.196Z,33.7
2018-04-17T04:32:24.968Z,33.7
2018-04-17T04:33:15.312Z,33.7
2018-04-17T04:34:05.032Z,33.7
2018-04-17T04:34:55.246Z,33.7
2018-04-17T04:35:45.458Z,33.7
2018-04-17T04:36:50.172Z,33.7
2018-04-17T04:37:25.571Z,33.7
2018-04-17T04:38:15.876Z,33.7
2018-04-17T04:39:06.018Z,33.6
2018-04-17T04:39:55.467Z,33.6
2018-04-17T04:40:46.500Z,33.6
2018-04-17T04:41:35.940Z,33.6
2018-04-17T04:42:25.688Z,33.6
2018-04-17T04:43:16.162Z,33.6
2018-04-17T04:44:21.019Z,33.6
2018-04-17T04:44:56.450Z,33.6
2018-04-17T04:45:46.528Z,33.6
2018-04-17T04:46:36.264Z,33.6
2018-04-17T04:47:26.543Z,33.6
2018-04-17T04:48:16.685Z,33.6
2018-04-17T04:49:06.183Z,33.6
2018-04-17T04:49:56.812Z,33.6
2018-04-17T04:50:46.864Z,33.6
2018-04-17T04:51:36.389Z,33.6
2018-04-17T04:52:26.959Z,33.6
2018-04-17T04:53:17.260Z,33.6
2018-04-17T04:54:07.107Z,33.6
2018-04-17T04:54:57.186Z,33.6
2018-04-17T04:55:46.853Z,33.6
2018-04-17T04:56:37.335Z,33.6
2018-04-17T04:57:27.082Z,33.6
2018-04-17T04:59:06.937Z,33.6
2018-04-17T04:59:56.994Z,33.6
2018-04-17T05:00:47.252Z,33.6
2018-04-17T05:01:37.694Z,33.6
2018-04-17T05:02:27.733Z,33.6
2018-04-17T05:03:17.261Z,33.6
2018-04-17T05:04:07.590Z,33.6
2018-04-17T05:05:12.702Z,33.6
2018-04-17T05:05:47.736Z,33.6
2018-04-17T05:06:38.050Z,33.6
2018-04-17T05:07:28.087Z,33.6
2018-04-17T05:08:18.163Z,33.6
2018-04-17T05:09:08.622Z,33.6
2018-04-17T05:09:58.275Z,33.5
2018-04-17T05:10:48.094Z,33.5
2018-04-17T05:11:38.131Z,33.5
2018-04-17T05:12:28.140Z,33.5
2018-04-17T05:13:18.274Z,33.6
2018-04-17T05:14:08.314Z,33.6
2018-04-17T05:14:58.856Z,33.5
2018-04-17T05:15:48.472Z,33.5
2018-04-17T05:16:38.827Z,33.5
2018-04-17T05:17:43.574Z,33.5
2018-04-17T05:18:18.572Z,33.5
2018-04-17T05:19:09.201Z,33.5
2018-04-17T05:19:58.230Z,33.5
2018-04-17T05:20:49.116Z,33.5
2018-04-17T05:21:38.879Z,33.5
2018-04-17T05:22:29.211Z,33.5
2018-04-17T05:24:09.355Z,33.5
2018-04-17T05:24:59.439Z,33.5
2018-04-17T05:25:49.209Z,33.4
2018-04-17T05:26:39.531Z,33.5
2018-04-17T05:27:28.755Z,33.5
2018-04-17T05:28:19.437Z,33.5
2018-04-17T05:29:09.417Z,33.5
2018-04-17T05:30:00.100Z,33.4
2018-04-17T05:30:49.872Z,33.4
2018-04-17T05:31:40.369Z,33.4
2018-04-17T05:32:29.696Z,33.4
2018-04-17T05:33:51.437Z,33.4
2018-04-17T05:34:09.856Z,33.4
2018-04-17T05:34:59.595Z,33.4
2018-04-17T05:35:49.967Z,33.4
2018-04-17T05:36:40.361Z,33.4
2018-04-17T05:37:30.043Z,33.4
2018-04-17T05:38:20.164Z,33.4
2018-04-17T05:39:10.225Z,33.4
2018-04-17T05:40:00.589Z,33.4
2018-04-17T05:40:50.626Z,33.4
2018-04-17T05:41:39.959Z,33.4
2018-04-17T05:42:30.508Z,33.4
2018-04-17T05:43:21.023Z,33.4
2018-04-17T05:44:10.608Z,33.4
2018-04-17T05:45:00.945Z,33.4
2018-04-17T05:45:50.704Z,33.4
2018-04-17T05:46:41.033Z,33.4
2018-04-17T05:47:31.112Z,33.4
2018-04-17T05:48:21.222Z,33.4
2018-04-17T05:49:25.619Z,33.4
2018-04-17T05:50:01.302Z,33.4
2018-04-17T05:50:51.084Z,33.4
2018-04-17T05:51:41.693Z,33.4
2018-04-17T05:52:31.205Z,33.4
2018-04-17T05:53:21.740Z,33.4
2018-04-17T05:54:11.647Z,33.4
2018-04-17T05:55:01.952Z,33.4
2018-04-17T05:56:07.274Z,33.4
2018-04-17T05:56:41.795Z,33.4
2018-04-17T05:57:31.609Z,33.4
2018-04-17T05:58:21.950Z,33.4
2018-04-17T05:59:26.377Z,33.4
2018-04-17T06:00:16.747Z,33.4
2018-04-17T06:00:52.144Z,33.3
2018-04-17T06:01:41.887Z,33.4
2018-04-17T06:02:32.234Z,33.3
2018-04-17T06:03:22.332Z,33.3
2018-04-17T06:04:12.115Z,33.3
2018-04-17T06:05:02.201Z,33.3
2018-04-17T06:05:52.566Z,33.3
2018-04-17T06:06:42.287Z,33.3
2018-04-17T06:07:32.623Z,33.3
2018-04-17T06:08:21.861Z,33.3
2018-04-17T06:09:12.489Z,33.3
2018-04-17T06:10:02.790Z,33.3
2018-04-17T06:10:52.906Z,33.3
2018-04-17T06:11:42.946Z,33.3
2018-04-17T06:12:32.787Z,33.3
2018-04-17T06:13:22.783Z,33.3
2018-04-17T06:14:13.113Z,33.3
2018-04-17T06:15:02.687Z,33.3
2018-04-17T06:15:53.288Z,33.3
2018-04-17T06:16:42.828Z,33.3
2018-04-17T06:17:32.528Z,33.3
2018-04-17T06:18:22.609Z,33.3
2018-04-17T06:19:13.228Z,33.3
2018-04-17T06:20:03.038Z,33.3
2018-04-17T06:20:53.521Z,33.3
2018-04-17T06:21:43.168Z,33.3
2018-04-17T06:22:33.515Z,33.3
2018-04-17T06:23:24.275Z,33.3
2018-04-17T06:24:13.604Z,33.3
2018-04-17T06:25:04.076Z,33.3
2018-04-17T06:25:53.437Z,33.3
2018-04-17T06:26:44.291Z,33.3
2018-04-17T06:27:34.123Z,33.3
2018-04-17T06:28:23.605Z,33.3
2018-04-17T06:29:14.097Z,33.3
2018-04-17T06:30:03.870Z,33.3
2018-04-17T06:30:54.137Z,33.3
2018-04-17T06:31:43.888Z,33.3
2018-04-17T06:32:33.721Z,33.3
2018-04-17T06:33:24.266Z,33.2
2018-04-17T06:34:13.810Z,33.3
2018-04-17T06:35:04.070Z,33.3
2018-04-17T06:35:54.493Z,33.2
2018-04-17T06:36:44.258Z,33.2
2018-04-17T06:37:34.669Z,33.3
2018-04-17T06:38:24.667Z,33.2
2018-04-17T06:39:14.640Z,33.2
2018-04-17T06:40:04.552Z,33.2
2018-04-17T06:40:54.852Z,33.2
2018-04-17T06:41:44.683Z,33.2
2018-04-17T06:42:34.987Z,33.2
2018-04-17T06:43:25.036Z,33.2
2018-04-17T06:44:15.134Z,33.2
2018-04-17T06:45:04.926Z,33.2
2018-04-17T06:45:55.258Z,33.2
2018-04-17T06:46:45.318Z,33.2
2018-04-17T06:47:36.463Z,33.2
2018-04-17T06:48:40.044Z,33.2
2018-04-17T06:49:16.230Z,33.2
2018-04-17T06:50:05.594Z,33.2
2018-04-17T06:50:55.344Z,33.2
2018-04-17T06:51:46.001Z,33.1
2018-04-17T06:52:35.956Z,33.2
2018-04-17T06:53:25.833Z,33.2
2018-04-17T06:54:15.618Z,33.1
2018-04-17T06:55:05.971Z,33.2
2018-04-17T06:55:55.713Z,33.1
2018-04-17T06:56:46.358Z,33.1
2018-04-17T06:57:36.148Z,33.1
2018-04-17T06:58:25.148Z,33.1
2018-04-17T06:59:16.420Z,33.1
2018-04-17T07:00:06.600Z,33.1
2018-04-17T07:02:36.213Z,33.1
2018-04-17T07:03:26.668Z,33.1
2018-04-17T07:04:16.880Z,33.1
2018-04-17T07:05:06.721Z,33.1
2018-04-17T07:05:57.457Z,33.1
2018-04-17T07:06:46.818Z,33.1
2018-04-17T07:07:37.608Z,33.1
2018-04-17T07:08:26.562Z,33.1
2018-04-17T07:09:17.286Z,33.1
2018-04-17T07:10:07.339Z,33.1
2018-04-17T07:10:57.131Z,33.1
2018-04-17T07:11:46.786Z,33.1
2018-04-17T07:12:37.747Z,33.1
2018-04-17T07:13:26.731Z,33.1
2018-04-17T07:14:17.109Z,33.1
2018-04-17T07:15:07.671Z,33.1
2018-04-17T07:15:57.933Z,33.1
2018-04-17T07:16:47.829Z,33.1
2018-04-17T07:17:37.372Z,33.1
2018-04-17T07:18:27.713Z,33.1
2018-04-17T07:19:18.084Z,33.1
2018-04-17T07:20:07.840Z,33.1
2018-04-17T07:20:58.322Z,33.1
2018-04-17T07:22:02.333Z,33.1
2018-04-17T07:22:37.839Z,33.1
2018-04-17T07:23:27.601Z,33.1
2018-04-17T07:24:17.866Z,33.1
2018-04-17T07:25:08.301Z,33.1
2018-04-17T07:25:58.536Z,33.1
2018-04-17T07:26:47.781Z,33
2018-04-17T07:27:38.589Z,33
2018-04-17T07:28:28.728Z,33
2018-04-17T07:29:33.467Z,33
2018-04-17T07:30:08.531Z,33
2018-04-17T07:30:58.921Z,33
2018-04-17T07:31:48.422Z,33
2018-04-17T07:32:38.765Z,33
2018-04-17T07:33:28.922Z,33
2018-04-17T07:34:18.706Z,33
2018-04-17T07:35:09.257Z,33
2018-04-17T07:35:58.223Z,33
2018-04-17T07:36:49.110Z,33
2018-04-17T07:37:38.926Z,33
2018-04-17T07:38:29.603Z,33
2018-04-17T07:39:19.517Z,33
2018-04-17T07:40:09.622Z,33
2018-04-17T07:40:59.221Z,33
2018-04-17T07:41:49.769Z,32.9
2018-04-17T07:42:39.294Z,33
2018-04-17T07:43:44.804Z,32.9
2018-04-17T07:44:19.969Z,32.9
2018-04-17T07:45:24.075Z,33
2018-04-17T07:46:00.107Z,32.9
2018-04-17T07:46:50.377Z,32.9
2018-04-17T07:47:39.974Z,32.9
2018-04-17T07:48:30.278Z,32.9
2018-04-17T07:49:35.012Z,32.9
2018-04-17T07:50:10.136Z,32.9
2018-04-17T07:51:00.473Z,32.9
2018-04-17T07:51:49.734Z,32.9
2018-04-17T07:52:40.889Z,32.9
2018-04-17T07:53:30.652Z,32.9
2018-04-17T07:54:20.724Z,32.9
2018-04-17T07:55:10.802Z,32.9
2018-04-17T07:56:01.117Z,32.9
2018-04-17T07:56:50.371Z,32.9
2018-04-17T07:57:40.733Z,32.9
2018-04-17T07:58:31.084Z,32.9
2018-04-17T07:59:21.027Z,32.9
2018-04-17T08:00:10.596Z,32.9
2018-04-17T08:01:00.972Z,32.9
2018-04-17T08:01:50.998Z,32.9
2018-04-17T08:02:41.604Z,32.9
2018-04-17T08:03:30.851Z,32.9
2018-04-17T08:04:21.718Z,32.9
2018-04-17T08:05:11.280Z,32.9
2018-04-17T08:06:01.625Z,32.9
2018-04-17T08:07:06.061Z,32.9
2018-04-17T08:07:41.785Z,32.9
2018-04-17T08:08:31.558Z,32.9
2018-04-17T08:09:21.326Z,32.9
2018-04-17T08:10:11.448Z,32.9
2018-04-17T08:11:02.027Z,32.9
2018-04-17T08:11:52.194Z,32.9
2018-04-17T08:12:41.529Z,32.9
2018-04-17T08:13:31.420Z,32.9
2018-04-17T08:14:21.493Z,32.9
2018-04-17T08:15:10.931Z,32.9
2018-04-17T08:16:02.394Z,32.9
2018-04-17T08:16:52.205Z,32.9
2018-04-17T08:17:42.755Z,32.8
2018-04-17T08:18:32.068Z,32.8
2018-04-17T08:19:22.513Z,32.8
2018-04-17T08:20:12.100Z,32.8
2018-04-17T08:21:02.457Z,32.8
2018-04-17T08:21:52.078Z,32.8
2018-04-17T08:22:42.694Z,32.8
2018-04-17T08:23:32.122Z,32.8
2018-04-17T08:24:22.775Z,32.8
2018-04-17T08:25:13.100Z,32.8
2018-04-17T08:26:03.136Z,32.8
2018-04-17T08:27:07.614Z,32.8
2018-04-17T08:27:43.274Z,32.8
2018-04-17T08:28:32.892Z,32.8
2018-04-17T08:29:23.166Z,32.8
2018-04-17T08:30:27.862Z,32.8
2018-04-17T08:31:02.717Z,32.8
2018-04-17T08:31:53.611Z,32.8
2018-04-17T08:32:43.689Z,32.8
2018-04-17T08:33:33.130Z,32.8
2018-04-17T08:34:23.782Z,32.8
2018-04-17T08:35:13.323Z,32.8
2018-04-17T08:36:03.182Z,32.8
2018-04-17T08:36:54.512Z,32.8
2018-04-17T08:37:43.813Z,32.8
2018-04-17T08:38:34.136Z,32.8
2018-04-17T08:39:24.274Z,32.8
2018-04-17T08:40:14.241Z,32.8
2018-04-17T08:41:04.064Z,32.8
2018-04-17T08:41:54.389Z,32.8
2018-04-17T08:42:44.801Z,32.8
2018-04-17T08:43:34.242Z,32.8
2018-04-17T08:44:24.310Z,32.8
2018-04-17T08:45:14.636Z,32.8
2018-04-17T08:46:04.718Z,32.8
2018-04-17T08:47:26.824Z,32.8
2018-04-17T08:47:44.363Z,32.8
2018-04-17T08:48:34.560Z,32.8
2018-04-17T08:49:23.948Z,32.8
2018-04-17T08:50:15.009Z,32.8
2018-04-17T08:51:04.807Z,32.8
2018-04-17T08:51:54.881Z,32.8
2018-04-17T08:52:44.387Z,32.7
2018-04-17T08:53:34.633Z,32.8
2018-04-17T08:54:25.169Z,32.8
2018-04-17T08:55:14.635Z,32.8
2018-04-17T08:56:04.368Z,32.7
2018-04-17T08:56:54.997Z,32.7
2018-04-17T08:57:45.253Z,32.7
2018-04-17T08:58:35.108Z,32.7
2018-04-17T08:59:40.750Z,32.7
2018-04-17T09:00:15.799Z,32.7
2018-04-17T09:01:06.097Z,32.7
2018-04-17T09:01:55.642Z,32.7
2018-04-17T09:03:00.829Z,32.7
2018-04-17T09:03:40.737Z,32.7
2018-04-17T09:04:30.532Z,32.7
2018-04-17T09:05:21.216Z,32.7
2018-04-17T09:06:10.897Z,32.7
2018-04-17T09:07:00.691Z,32.7
2018-04-17T09:07:50.523Z,32.7
2018-04-17T09:08:40.884Z,32.7
2018-04-17T09:09:31.151Z,32.7
2018-04-17T09:10:20.752Z,32.7
2018-04-17T09:11:11.547Z,32.7
2018-04-17T09:12:01.036Z,32.7
2018-04-17T09:12:50.173Z,32.7
2018-04-17T09:13:40.765Z,32.6
2018-04-17T09:14:31.091Z,32.7
2018-04-17T09:15:35.442Z,32.6
2018-04-17T09:16:11.712Z,32.6
2018-04-17T09:17:00.636Z,32.6
2018-04-17T09:17:51.548Z,32.6
2018-04-17T09:18:41.627Z,32.6
2018-04-17T09:19:31.983Z,32.6
2018-04-17T09:20:21.542Z,32.6
2018-04-17T09:21:11.534Z,32.6
2018-04-17T09:22:02.169Z,32.6
2018-04-17T09:23:06.553Z,32.6
2018-04-17T09:23:42.270Z,32.6
2018-04-17T09:24:31.016Z,32.6
2018-04-17T09:25:21.281Z,32.6
2018-04-17T09:26:12.681Z,32.6
2018-04-17T09:27:01.215Z,32.6
2018-04-17T09:27:51.756Z,32.6
2018-04-17T09:28:42.668Z,32.6
2018-04-17T09:29:32.458Z,32.6
2018-04-17T09:30:22.524Z,32.6
2018-04-17T09:31:12.544Z,32.6
2018-04-17T09:32:02.933Z,32.6
2018-04-17T09:32:53.028Z,32.6
2018-04-17T09:33:43.016Z,32.6
2018-04-17T09:34:32.860Z,32.6
2018-04-17T09:35:22.599Z,32.6
2018-04-17T09:36:13.416Z,32.6
2018-04-17T09:37:03.041Z,32.6
2018-04-17T09:37:53.315Z,32.6
2018-04-17T09:38:43.434Z,32.6
2018-04-17T09:39:33.221Z,32.6
2018-04-17T09:40:23.597Z,32.6
2018-04-17T09:41:13.626Z,32.6
2018-04-17T09:42:03.106Z,32.5
2018-04-17T09:42:53.452Z,32.6
2018-04-17T09:43:43.532Z,32.6
2018-04-17T09:44:33.780Z,32.6
2018-04-17T09:45:24.116Z,32.6
2018-04-17T09:46:13.715Z,32.5
2018-04-17T09:47:04.071Z,32.6
2018-04-17T09:47:53.860Z,32.5
2018-04-17T09:48:44.178Z,32.5
2018-04-17T09:49:34.303Z,32.5
2018-04-17T09:50:38.774Z,32.5
2018-04-17T09:51:14.127Z,32.5
2018-04-17T09:52:03.127Z,32.5
2018-04-17T09:52:54.529Z,32.5
2018-04-17T09:53:43.759Z,32.5
2018-04-17T09:54:34.387Z,32.5
2018-04-17T09:55:24.156Z,32.5
2018-04-17T09:56:14.376Z,32.5
2018-04-17T09:57:05.263Z,32.5
2018-04-17T09:57:54.662Z,32.5
2018-04-17T09:58:59.708Z,32.5
2018-04-17T09:59:34.498Z,32.5
2018-04-17T10:00:39.477Z,32.4
2018-04-17T10:01:14.504Z,32.5
2018-04-17T10:02:05.145Z,32.5
2018-04-17T10:02:54.533Z,32.4
2018-04-17T10:03:45.343Z,32.5
2018-04-17T10:04:35.402Z,32.4
2018-04-17T10:05:25.209Z,32.4
2018-04-17T10:06:15.066Z,32.4
2018-04-17T10:07:04.978Z,32.4
2018-04-17T10:07:55.695Z,32.4
2018-04-17T10:08:45.653Z,32.4
2018-04-17T10:09:35.758Z,32.4
2018-04-17T10:10:25.253Z,32.4
2018-04-17T10:11:15.359Z,32.4
2018-04-17T10:12:06.055Z,32.4
2018-04-17T10:12:55.804Z,32.4
2018-04-17T10:13:45.841Z,32.4
2018-04-17T10:14:35.656Z,32.4
2018-04-17T10:15:26.000Z,32.4
2018-04-17T10:16:16.043Z,32.4
2018-04-17T10:17:05.545Z,32.4
2018-04-17T10:17:56.217Z,32.4
2018-04-17T10:18:45.960Z,32.4
2018-04-17T10:19:36.187Z,32.4
2018-04-17T10:20:26.200Z,32.4
2018-04-17T10:21:16.717Z,32.4
2018-04-17T10:22:06.470Z,32.4
2018-04-17T10:22:56.067Z,32.4
2018-04-17T10:23:46.614Z,32.4
2018-04-17T10:24:36.699Z,32.4
2018-04-17T10:25:26.760Z,32.4
2018-04-17T10:26:17.027Z,32.4
2018-04-17T10:27:07.167Z,32.4
2018-04-17T10:27:56.937Z,32.4
2018-04-17T10:29:01.862Z,32.4
2018-04-17T10:29:36.840Z,32.4
2018-04-17T10:30:26.927Z,32.4
2018-04-17T10:31:16.891Z,32.4
2018-04-17T10:32:06.708Z,32.4
2018-04-17T10:32:57.521Z,32.4
2018-04-17T10:34:24.885Z,32.4
2018-04-17T10:35:14.943Z,32.4
2018-04-17T10:36:05.307Z,32.4
2018-04-17T10:36:55.092Z,32.4
2018-04-17T10:37:45.134Z,32.4
2018-04-17T10:38:35.513Z,32.4
2018-04-17T10:39:24.816Z,32.3
2018-04-17T10:40:15.597Z,32.3
2018-04-17T10:41:05.447Z,32.3
2018-04-17T10:41:55.781Z,32.3
2018-04-17T10:42:45.611Z,32.3
2018-04-17T10:43:35.591Z,32.3
2018-04-17T10:44:25.661Z,32.3
2018-04-17T10:45:14.958Z,32.3
2018-04-17T10:46:05.589Z,32.3
2018-04-17T10:46:56.137Z,32.3
2018-04-17T10:47:45.394Z,32.3
2018-04-17T10:48:35.383Z,32.3
2018-04-17T10:49:25.289Z,32.3
2018-04-17T10:50:15.841Z,32.3
2018-04-17T10:51:05.891Z,32.3
2018-04-17T10:51:56.207Z,32.3
2018-04-17T10:52:46.298Z,32.3
2018-04-17T10:53:36.616Z,32.3
2018-04-17T10:54:26.438Z,32.3
2018-04-17T10:55:16.741Z,32.3
2018-04-17T10:56:06.254Z,32.3
2018-04-17T10:56:56.614Z,32.3
2018-04-17T10:57:46.461Z,32.3
2018-04-17T10:58:37.048Z,32.3
2018-04-17T10:59:25.683Z,32.3
2018-04-17T11:00:17.199Z,32.3
2018-04-17T11:01:06.982Z,32.3
2018-04-17T11:01:56.985Z,32.3
2018-04-17T11:02:46.775Z,32.3
2018-04-17T11:03:37.119Z,32.3
2018-04-17T11:04:27.497Z,32.3
2018-04-17T11:05:17.572Z,32.3
2018-04-17T11:06:07.330Z,32.3
2018-04-17T11:06:57.354Z,32.3
2018-04-17T11:07:47.717Z,32.3
2018-04-17T11:08:37.235Z,32.3
2018-04-17T11:09:27.630Z,32.3
2018-04-17T11:10:17.949Z,32.3
2018-04-17T11:11:07.694Z,32.2
2018-04-17T11:11:57.792Z,32.3
2018-04-17T11:12:48.122Z,32.2
2018-04-17T11:13:37.334Z,32.3